Terminal Aerodrome Forecast
Issued by NWS

Home | Current Version | Previous Version | Text Only | Print | Product List | Glossary On
Versions: 1 2 3 4 5 6 7 8 9 10 11 12 13 14 15 16 17 18 19 20 21 22 23 24 25 26 27 28 29 30 31 32 33 34 35 36 37 38 39 40 41 42 43
000
FTUS41 KBOX 072346 AAA
TAFACK
TAF AMD
KACK 072346Z 0800/0824 18010KT 3SM BR OVC002
     FM080200 19012KT 2SM BR OVC002
     FM080400 20013KT 3/4SM BR OVC002
     FM080600 21012KT 1SM BR OVC002
     FM081200 21012KT 5SM BR SCT002 BKN010
     FM081400 22012G20KT P6SM SCT250
     FM081900 23013KT P6SM BKN060=

USA.gov is the U.S. government's official web portal to all federal, state and local government web resources and services.